<?xml version="1.0" encoding="utf-8"?>
<gpx xmlns:xsi="http://www.w3.org/2001/XMLSchema-instance" xmlns:xsd="http://www.w3.org/2001/XMLSchema" version="1.1" creator="Shapelink.com" xmlns="http://www.topografix.com/GPX/1/1" xmlns:gpxtpx="http://www.garmin.com/xmlschemas/TrackPointExtension/v1">
  <metadata>
    <name>Övrigt 2.20 km, 2020-07-15</name>
    <desc></desc>
    <author><name>Marian Moron</name></author> 
    <time>2020-07-15T20:59:31Z</time>
  </metadata>
  <trk>
    <name>Övrigt 2.20 km, 2020-07-15</name>
    <trkseg>
      <trkpt lat="51.229831489032" lon="4.457922651271">
        <ele>0</ele>
        <time>2020-07-15T20:59:31Z</time>
      </trkpt>
      <trkpt lat="51.230000216679" lon="4.458381141201">
        <ele>2</ele>
        <time>2020-07-15T21:00:12Z</time>
      </trkpt>
      <trkpt lat="51.230041036532" lon="4.458777605071">
        <ele>1.2</ele>
        <time>2020-07-15T21:01:01Z</time>
      </trkpt>
      <trkpt lat="51.230186294859" lon="4.458762433832">
        <ele>1.8</ele>
        <time>2020-07-15T21:01:20Z</time>
      </trkpt>
      <trkpt lat="51.230430878701" lon="4.458800822934">
        <ele>1.2</ele>
        <time>2020-07-15T21:01:47Z</time>
      </trkpt>
      <trkpt lat="51.230524923619" lon="4.459109360673">
        <ele>1.2</ele>
        <time>2020-07-15T21:02:34Z</time>
      </trkpt>
      <trkpt lat="51.230524672162" lon="4.459309185169">
        <ele>1</ele>
        <time>2020-07-15T21:02:46Z</time>
      </trkpt>
      <trkpt lat="51.230606730963" lon="4.459761304855">
        <ele>1</ele>
        <time>2020-07-15T21:03:14Z</time>
      </trkpt>
      <trkpt lat="51.230626093152" lon="4.460067747119">
        <ele>1</ele>
        <time>2020-07-15T21:03:51Z</time>
      </trkpt>
      <trkpt lat="51.230630954654" lon="4.460098843968">
        <ele>1.2</ele>
        <time>2020-07-15T21:03:53Z</time>
      </trkpt>
      <trkpt lat="51.230576220847" lon="4.460719272206">
        <ele>0</ele>
        <time>2020-07-15T21:04:56Z</time>
      </trkpt>
      <trkpt lat="51.230491396019" lon="4.460756990756">
        <ele>0</ele>
        <time>2020-07-15T21:05:31Z</time>
      </trkpt>
      <trkpt lat="51.230033492822" lon="4.460858244108">
        <ele>0.4</ele>
        <time>2020-07-15T21:05:59Z</time>
      </trkpt>
      <trkpt lat="51.229644237386" lon="4.46105002198">
        <ele>2</ele>
        <time>2020-07-15T21:06:35Z</time>
      </trkpt>
      <trkpt lat="51.229698803555" lon="4.461048261781">
        <ele>3.4</ele>
        <time>2020-07-15T21:06:40Z</time>
      </trkpt>
      <trkpt lat="51.229892425445" lon="4.461609513805">
        <ele>2</ele>
        <time>2020-07-15T21:07:19Z</time>
      </trkpt>
      <trkpt lat="51.229983452879" lon="4.461836998571">
        <ele>0</ele>
        <time>2020-07-15T21:07:40Z</time>
      </trkpt>
      <trkpt lat="51.230013879176" lon="4.461946130909">
        <ele>0</ele>
        <time>2020-07-15T21:07:49Z</time>
      </trkpt>
      <trkpt lat="51.230038270505" lon="4.462098010937">
        <ele>0</ele>
        <time>2020-07-15T21:08:01Z</time>
      </trkpt>
      <trkpt lat="51.23011161213" lon="4.462347288643">
        <ele>0</ele>
        <time>2020-07-15T21:08:22Z</time>
      </trkpt>
      <trkpt lat="51.230302132717" lon="4.462948857606">
        <ele>0</ele>
        <time>2020-07-15T21:09:08Z</time>
      </trkpt>
      <trkpt lat="51.230410175408" lon="4.463643968573">
        <ele>0</ele>
        <time>2020-07-15T21:09:51Z</time>
      </trkpt>
      <trkpt lat="51.230268605117" lon="4.463906489681">
        <ele>0</ele>
        <time>2020-07-15T21:10:21Z</time>
      </trkpt>
      <trkpt lat="51.229877505663" lon="4.464201281104">
        <ele>0</ele>
        <time>2020-07-15T21:11:06Z</time>
      </trkpt>
      <trkpt lat="51.229764685289" lon="4.464052167103">
        <ele>3.8</ele>
        <time>2020-07-15T21:11:22Z</time>
      </trkpt>
      <trkpt lat="51.22972436835" lon="4.464098435191">
        <ele>4.8</ele>
        <time>2020-07-15T21:11:25Z</time>
      </trkpt>
      <trkpt lat="51.229651781096" lon="4.464116791552">
        <ele>9.2</ele>
        <time>2020-07-15T21:11:33Z</time>
      </trkpt>
      <trkpt lat="51.22920636693" lon="4.464208657176">
        <ele>6.8</ele>
        <time>2020-07-15T21:12:15Z</time>
      </trkpt>
      <trkpt lat="51.228966141676" lon="4.464358609367">
        <ele>7.2</ele>
        <time>2020-07-15T21:12:47Z</time>
      </trkpt>
      <trkpt lat="51.228682246723" lon="4.46457125817">
        <ele>0</ele>
        <time>2020-07-15T21:13:23Z</time>
      </trkpt>
      <trkpt lat="51.228723988585" lon="4.464918101192">
        <ele>0</ele>
        <time>2020-07-15T21:13:58Z</time>
      </trkpt>
      <trkpt lat="51.228729185363" lon="4.465144412492">
        <ele>2</ele>
        <time>2020-07-15T21:14:18Z</time>
      </trkpt>
      <trkpt lat="51.228577305335" lon="4.465797111045">
        <ele>0</ele>
        <time>2020-07-15T21:14:59Z</time>
      </trkpt>
      <trkpt lat="51.228350323483" lon="4.466026020734">
        <ele>0</ele>
        <time>2020-07-15T21:15:26Z</time>
      </trkpt>
      <trkpt lat="51.227959643124" lon="4.466310334782">
        <ele>0</ele>
        <time>2020-07-15T21:16:09Z</time>
      </trkpt>
      <trkpt lat="51.227958134382" lon="4.466300276502">
        <ele>0</ele>
        <time>2020-07-15T21:16:10Z</time>
      </trkpt>
      <trkpt lat="51.227926366981" lon="4.466213691475">
        <ele>4</ele>
        <time>2020-07-15T21:16:32Z</time>
      </trkpt>
      <trkpt lat="51.227916057244" lon="4.465493518627">
        <ele>3.6</ele>
        <time>2020-07-15T21:17:14Z</time>
      </trkpt>
      <trkpt lat="51.227827879656" lon="4.464777704367">
        <ele>4.8</ele>
        <time>2020-07-15T21:17:52Z</time>
      </trkpt>
      <trkpt lat="51.227826119457" lon="4.464763455137">
        <ele>5</ele>
        <time>2020-07-15T21:17:53Z</time>
      </trkpt>
      <trkpt lat="51.227831902968" lon="4.464660525405">
        <ele>3.2</ele>
        <time>2020-07-15T21:17:59Z</time>
      </trkpt>
      <trkpt lat="51.227852187166" lon="4.464626411072">
        <ele>7</ele>
        <time>2020-07-15T21:18:02Z</time>
      </trkpt>
      <trkpt lat="51.227886469137" lon="4.464340420644">
        <ele>11</ele>
        <time>2020-07-15T21:18:38Z</time>
      </trkpt>
      <trkpt lat="51.227844894913" lon="4.46362326528">
        <ele>11</ele>
        <time>2020-07-15T21:19:19Z</time>
      </trkpt>
      <trkpt lat="51.22774456357" lon="4.462931590892">
        <ele>9.6</ele>
        <time>2020-07-15T21:19:56Z</time>
      </trkpt>
      <trkpt lat="51.227611458998" lon="4.462375870922">
        <ele>3.6</ele>
        <time>2020-07-15T21:20:24Z</time>
      </trkpt>
      <trkpt lat="51.227572399344" lon="4.462271348629">
        <ele>3.2</ele>
        <time>2020-07-15T21:20:35Z</time>
      </trkpt>
      <trkpt lat="51.227446419387" lon="4.461892235292">
        <ele>1.6</ele>
        <time>2020-07-15T21:21:09Z</time>
      </trkpt>
      <trkpt lat="51.227346088044" lon="4.461196872868">
        <ele>0.6</ele>
        <time>2020-07-15T21:21:49Z</time>
      </trkpt>
      <trkpt lat="51.227377520169" lon="4.460848940199">
        <ele>1</ele>
        <time>2020-07-15T21:22:09Z</time>
      </trkpt>
      <trkpt lat="51.227283726708" lon="4.460132874482">
        <ele>3.4</ele>
        <time>2020-07-15T21:22:51Z</time>
      </trkpt>
      <trkpt lat="51.227112400672" lon="4.459464417957">
        <ele>3.8</ele>
        <time>2020-07-15T21:23:26Z</time>
      </trkpt>
      <trkpt lat="51.227078370158" lon="4.459140038427">
        <ele>0</ele>
        <time>2020-07-15T21:23:53Z</time>
      </trkpt>
      <trkpt lat="51.227108461179" lon="4.459087986828">
        <ele>0</ele>
        <time>2020-07-15T21:23:58Z</time>
      </trkpt>
      <trkpt lat="51.227321529077" lon="4.458836110733">
        <ele>0</ele>
        <time>2020-07-15T21:24:28Z</time>
      </trkpt>
      <trkpt lat="51.227757304058" lon="4.458629077803">
        <ele>3.6</ele>
        <time>2020-07-15T21:25:10Z</time>
      </trkpt>
      <trkpt lat="51.228172375746" lon="4.458357504243">
        <ele>3.8</ele>
        <time>2020-07-15T21:25:50Z</time>
      </trkpt>
      <trkpt lat="51.228486948453" lon="4.45813647354">
        <ele>2</ele>
        <time>2020-07-15T21:26:40Z</time>
      </trkpt>
      <trkpt lat="51.228369434215" lon="4.457451337034">
        <ele>0.4</ele>
        <time>2020-07-15T21:27:20Z</time>
      </trkpt>
      <trkpt lat="51.228393657906" lon="4.457300714291">
        <ele>1.2</ele>
        <time>2020-07-15T21:27:31Z</time>
      </trkpt>
      <trkpt lat="51.228429783895" lon="4.457278837532">
        <ele>1.4</ele>
        <time>2020-07-15T21:27:34Z</time>
      </trkpt>
      <trkpt lat="51.228632625875" lon="4.456916236538">
        <ele>0.8</ele>
        <time>2020-07-15T21:28:09Z</time>
      </trkpt>
      <trkpt lat="51.22908399119" lon="4.456975664209">
        <ele>16.4</ele>
        <time>2020-07-15T21:28:49Z</time>
      </trkpt>
      <trkpt lat="51.229501242172" lon="4.456789921305">
        <ele>25.2</ele>
        <time>2020-07-15T21:29:48Z</time>
      </trkpt>
      <trkpt lat="51.229577517462" lon="4.456765027062">
        <ele>23.8</ele>
        <time>2020-07-15T21:29:58Z</time>
      </trkpt>
      <trkpt lat="51.229821849847" lon="4.45669143398">
        <ele>12.6</ele>
        <time>2020-07-15T21:30:20Z</time>
      </trkpt>
      <trkpt lat="51.2297704688" lon="4.456973736372">
        <ele>12.6</ele>
        <time>2020-07-15T21:30:39Z</time>
      </trkpt>
      <trkpt lat="51.229887061029" lon="4.457666835683">
        <ele>6.2</ele>
        <time>2020-07-15T21:31:11Z</time>
      </trkpt>
      <trkpt lat="51.229809612273" lon="4.457789881975">
        <ele>4.4</ele>
        <time>2020-07-15T21:31:30Z</time>
      </trkpt>
      <trkpt lat="51.229665946507" lon="4.457856266623">
        <ele>3.2</ele>
        <time>2020-07-15T21:31:46Z</time>
      </trkpt>
      <trkpt lat="51.229294460699" lon="4.457978223268">
        <ele>4.4</ele>
        <time>2020-07-15T21:32:34Z</time>
      </trkpt>
      <trkpt lat="51.22922313073" lon="4.458108058899">
        <ele>1.8</ele>
        <time>2020-07-15T21:33:08Z</time>
      </trkpt>
      <trkpt lat="51.229668796353" lon="4.457971182472">
        <ele>0</ele>
        <time>2020-07-15T21:33:52Z</time>
      </trkpt>
      <trkpt lat="51.229760075244" lon="4.458007979013">
        <ele>0</ele>
        <time>2020-07-15T21:34:24Z</time>
      </trkpt>
    </trkseg>
  </trk>
</gpx>